sensor_id;sensor_type;location;lat;lon;timestamp;P1;durP1;ratioP1;P2;durP2;ratioP2
24216;SDS011;12356;49.386;8.688;2022-12-18T00:01:45;86.75;;;30.65;;
24216;SDS011;12356;49.386;8.688;2022-12-18T00:04:23;84.90;;;29.88;;
24216;SDS011;12356;49.386;8.688;2022-12-18T00:06:54;84.88;;;29.02;;
24216;SDS011;12356;49.386;8.688;2022-12-18T00:09:25;90.88;;;29.95;;
24216;SDS011;12356;49.386;8.688;2022-12-18T00:11:56;80.13;;;30.45;;
24216;SDS011;12356;49.386;8.688;2022-12-18T00:14:26;86.00;;;29.60;;
24216;SDS011;12356;49.386;8.688;2022-12-18T00:16:57;76.53;;;29.52;;
24216;SDS011;12356;49.386;8.688;2022-12-18T00:19:30;78.95;;;28.33;;
24216;SDS011;12356;49.386;8.688;2022-12-18T00:22:01;80.43;;;29.55;;
24216;SDS011;12356;49.386;8.688;2022-12-18T00:24:31;82.82;;;29.40;;
24216;SDS011;12356;49.386;8.688;2022-12-18T00:27:02;82.55;;;29.52;;
24216;SDS011;12356;49.386;8.688;2022-12-18T00:29:33;82.90;;;29.65;;
24216;SDS011;12356;49.386;8.688;2022-12-18T00:32:03;85.25;;;28.73;;
24216;SDS011;12356;49.386;8.688;2022-12-18T00:34:34;76.25;;;27.67;;
24216;SDS011;12356;49.386;8.688;2022-12-18T00:37:05;80.00;;;28.67;;
24216;SDS011;12356;49.386;8.688;2022-12-18T00:39:35;79.13;;;27.90;;
24216;SDS011;12356;49.386;8.688;2022-12-18T00:42:07;78.10;;;27.50;;
24216;SDS011;12356;49.386;8.688;2022-12-18T00:44:58;74.15;;;27.35;;
24216;SDS011;12356;49.386;8.688;2022-12-18T00:47:29;75.13;;;27.08;;
24216;SDS011;12356;49.386;8.688;2022-12-18T00:50:00;83.15;;;28.42;;
24216;SDS011;12356;49.386;8.688;2022-12-18T00:52:30;80.50;;;28.38;;
24216;SDS011;12356;49.386;8.688;2022-12-18T00:55:01;79.43;;;28.10;;
24216;SDS011;12356;49.386;8.688;2022-12-18T00:57:32;77.35;;;27.38;;
24216;SDS011;12356;49.386;8.688;2022-12-18T01:00:03;73.13;;;26.58;;
24216;SDS011;12356;49.386;8.688;2022-12-18T01:02:35;73.80;;;27.25;;
24216;SDS011;12356;49.386;8.688;2022-12-18T01:05:06;78.57;;;26.33;;
24216;SDS011;12356;49.386;8.688;2022-12-18T01:07:38;74.90;;;26.55;;
24216;SDS011;12356;49.386;8.688;2022-12-18T01:10:10;78.78;;;26.73;;
24216;SDS011;12356;49.386;8.688;2022-12-18T01:12:42;76.30;;;26.27;;
24216;SDS011;12356;49.386;8.688;2022-12-18T01:15:13;77.03;;;27.83;;
24216;SDS011;12356;49.386;8.688;2022-12-18T01:17:45;69.18;;;30.65;;
24216;SDS011;12356;49.386;8.688;2022-12-18T01:20:15;75.50;;;25.17;;
24216;SDS011;12356;49.386;8.688;2022-12-18T01:22:46;70.18;;;25.65;;
24216;SDS011;12356;49.386;8.688;2022-12-18T01:25:16;72.38;;;25.35;;
24216;SDS011;12356;49.386;8.688;2022-12-18T01:27:47;72.95;;;26.90;;
24216;SDS011;12356;49.386;8.688;2022-12-18T01:30:18;75.55;;;26.05;;
24216;SDS011;12356;49.386;8.688;2022-12-18T01:32:48;77.68;;;27.73;;
24216;SDS011;12356;49.386;8.688;2022-12-18T01:35:19;78.15;;;27.55;;
24216;SDS011;12356;49.386;8.688;2022-12-18T01:37:53;79.63;;;27.25;;
24216;SDS011;12356;49.386;8.688;2022-12-18T01:40:26;74.63;;;26.33;;
24216;SDS011;12356;49.386;8.688;2022-12-18T01:42:57;73.40;;;25.67;;
24216;SDS011;12356;49.386;8.688;2022-12-18T01:45:28;81.68;;;26.67;;
24216;SDS011;12356;49.386;8.688;2022-12-18T01:48:05;71.75;;;25.42;;
24216;SDS011;12356;49.386;8.688;2022-12-18T01:50:39;74.05;;;26.45;;
24216;SDS011;12356;49.386;8.688;2022-12-18T01:53:15;75.82;;;25.73;;
24216;SDS011;12356;49.386;8.688;2022-12-18T01:55:53;74.57;;;25.95;;
24216;SDS011;12356;49.386;8.688;2022-12-18T01:58:37;80.22;;;27.20;;
24216;SDS011;12356;49.386;8.688;2022-12-18T02:01:30;75.20;;;25.88;;
24216;SDS011;12356;49.386;8.688;2022-12-18T02:07:07;68.70;;;26.50;;
24216;SDS011;12356;49.386;8.688;2022-12-18T02:10:04;75.60;;;26.48;;
24216;SDS011;12356;49.386;8.688;2022-12-18T02:12:56;66.75;;;24.70;;
24216;SDS011;12356;49.386;8.688;2022-12-18T02:18:21;74.72;;;26.10;;
24216;SDS011;12356;49.386;8.688;2022-12-18T02:23:57;77.22;;;26.15;;
24216;SDS011;12356;49.386;8.688;2022-12-18T02:26:34;78.47;;;26.33;;
24216;SDS011;12356;49.386;8.688;2022-12-18T02:29:13;73.07;;;25.98;;
24216;SDS011;12356;49.386;8.688;2022-12-18T02:32:02;74.13;;;25.08;;
24216;SDS011;12356;49.386;8.688;2022-12-18T02:34:37;69.80;;;24.77;;
24216;SDS011;12356;49.386;8.688;2022-12-18T02:37:09;67.03;;;24.73;;
24216;SDS011;12356;49.386;8.688;2022-12-18T02:39:44;64.70;;;23.92;;
24216;SDS011;12356;49.386;8.688;2022-12-18T02:42:17;71.50;;;25.08;;
24216;SDS011;12356;49.386;8.688;2022-12-18T02:44:50;65.65;;;24.90;;
24216;SDS011;12356;49.386;8.688;2022-12-18T02:59:06;66.82;;;24.08;;
24216;SDS011;12356;49.386;8.688;2022-12-18T03:01:57;67.28;;;24.92;;
24216;SDS011;12356;49.386;8.688;2022-12-18T03:04:49;74.93;;;25.10;;
24216;SDS011;12356;49.386;8.688;2022-12-18T03:07:41;67.47;;;24.20;;
24216;SDS011;12356;49.386;8.688;2022-12-18T03:10:17;72.80;;;25.75;;
24216;SDS011;12356;49.386;8.688;2022-12-18T03:12:52;68.30;;;24.67;;
24216;SDS011;12356;49.386;8.688;2022-12-18T03:15:41;69.57;;;25.58;;
24216;SDS011;12356;49.386;8.688;2022-12-18T03:18:19;73.10;;;25.35;;
24216;SDS011;12356;49.386;8.688;2022-12-18T03:20:55;70.80;;;24.42;;
24216;SDS011;12356;49.386;8.688;2022-12-18T03:23:31;70.32;;;25.38;;
24216;SDS011;12356;49.386;8.688;2022-12-18T03:26:07;65.75;;;23.90;;
24216;SDS011;12356;49.386;8.688;2022-12-18T03:28:50;73.43;;;25.25;;
24216;SDS011;12356;49.386;8.688;2022-12-18T03:31:23;75.40;;;25.20;;
24216;SDS011;12356;49.386;8.688;2022-12-18T03:33:58;72.80;;;25.55;;
24216;SDS011;12356;49.386;8.688;2022-12-18T03:36:34;70.43;;;25.02;;
24216;SDS011;12356;49.386;8.688;2022-12-18T03:39:05;71.18;;;24.92;;
24216;SDS011;12356;49.386;8.688;2022-12-18T03:47:53;69.72;;;23.58;;
24216;SDS011;12356;49.386;8.688;2022-12-18T03:50:37;71.93;;;25.67;;
24216;SDS011;12356;49.386;8.688;2022-12-18T03:53:12;71.75;;;24.33;;
24216;SDS011;12356;49.386;8.688;2022-12-18T03:55:52;66.85;;;24.05;;
24216;SDS011;12356;49.386;8.688;2022-12-18T03:58:24;68.93;;;25.30;;
24216;SDS011;12356;49.386;8.688;2022-12-18T04:00:56;68.47;;;24.27;;
24216;SDS011;12356;49.386;8.688;2022-12-18T04:03:31;68.82;;;25.10;;
24216;SDS011;12356;49.386;8.688;2022-12-18T04:06:04;69.00;;;25.42;;
24216;SDS011;12356;49.386;8.688;2022-12-18T04:08:36;68.05;;;24.45;;
24216;SDS011;12356;49.386;8.688;2022-12-18T04:11:08;66.85;;;24.45;;
24216;SDS011;12356;49.386;8.688;2022-12-18T04:13:39;66.43;;;23.50;;
24216;SDS011;12356;49.386;8.688;2022-12-18T04:16:12;64.40;;;23.40;;
24216;SDS011;12356;49.386;8.688;2022-12-18T04:18:43;66.25;;;23.70;;
24216;SDS011;12356;49.386;8.688;2022-12-18T04:21:13;67.43;;;23.38;;
24216;SDS011;12356;49.386;8.688;2022-12-18T04:23:44;68.47;;;25.38;;
24216;SDS011;12356;49.386;8.688;2022-12-18T04:26:15;65.00;;;24.30;;
24216;SDS011;12356;49.386;8.688;2022-12-18T04:28:45;68.13;;;24.48;;
24216;SDS011;12356;49.386;8.688;2022-12-18T04:31:16;67.95;;;24.05;;
24216;SDS011;12356;49.386;8.688;2022-12-18T04:33:46;70.88;;;25.08;;
24216;SDS011;12356;49.386;8.688;2022-12-18T04:36:17;71.63;;;23.83;;
24216;SDS011;12356;49.386;8.688;2022-12-18T04:38:48;68.22;;;23.65;;
24216;SDS011;12356;49.386;8.688;2022-12-18T04:41:18;71.28;;;23.83;;
24216;SDS011;12356;49.386;8.688;2022-12-18T04:43:49;73.30;;;24.63;;
24216;SDS011;12356;49.386;8.688;2022-12-18T04:46:20;70.20;;;24.35;;
24216;SDS011;12356;49.386;8.688;2022-12-18T04:48:50;67.07;;;25.17;;
24216;SDS011;12356;49.386;8.688;2022-12-18T04:51:21;72.03;;;25.10;;
24216;SDS011;12356;49.386;8.688;2022-12-18T04:53:52;67.35;;;24.73;;
24216;SDS011;12356;49.386;8.688;2022-12-18T04:56:23;78.03;;;25.60;;
24216;SDS011;12356;49.386;8.688;2022-12-18T04:58:54;73.35;;;25.38;;
24216;SDS011;12356;49.386;8.688;2022-12-18T05:01:24;72.47;;;25.63;;
24216;SDS011;12356;49.386;8.688;2022-12-18T05:03:55;70.18;;;24.27;;
24216;SDS011;12356;49.386;8.688;2022-12-18T05:06:25;66.30;;;23.20;;
24216;SDS011;12356;49.386;8.688;2022-12-18T05:08:56;64.50;;;24.13;;
24216;SDS011;12356;49.386;8.688;2022-12-18T05:11:27;65.10;;;22.88;;
24216;SDS011;12356;49.386;8.688;2022-12-18T05:13:57;67.03;;;23.48;;
24216;SDS011;12356;49.386;8.688;2022-12-18T05:16:28;69.38;;;24.17;;
24216;SDS011;12356;49.386;8.688;2022-12-18T05:18:59;69.53;;;23.75;;
24216;SDS011;12356;49.386;8.688;2022-12-18T05:21:29;64.82;;;23.20;;
24216;SDS011;12356;49.386;8.688;2022-12-18T05:24:00;69.82;;;23.50;;
24216;SDS011;12356;49.386;8.688;2022-12-18T05:26:31;63.58;;;22.75;;
24216;SDS011;12356;49.386;8.688;2022-12-18T05:29:01;65.93;;;23.42;;
24216;SDS011;12356;49.386;8.688;2022-12-18T05:31:32;68.13;;;22.90;;
24216;SDS011;12356;49.386;8.688;2022-12-18T05:34:03;71.05;;;23.85;;
24216;SDS011;12356;49.386;8.688;2022-12-18T05:36:33;62.75;;;22.10;;
24216;SDS011;12356;49.386;8.688;2022-12-18T05:39:05;67.72;;;23.45;;
24216;SDS011;12356;49.386;8.688;2022-12-18T05:41:36;72.43;;;24.05;;
24216;SDS011;12356;49.386;8.688;2022-12-18T05:44:06;74.30;;;23.85;;
24216;SDS011;12356;49.386;8.688;2022-12-18T05:46:37;65.82;;;23.35;;
24216;SDS011;12356;49.386;8.688;2022-12-18T05:49:08;58.70;;;22.20;;
24216;SDS011;12356;49.386;8.688;2022-12-18T05:51:39;63.97;;;23.58;;
24216;SDS011;12356;49.386;8.688;2022-12-18T05:54:09;65.53;;;21.92;;
24216;SDS011;12356;49.386;8.688;2022-12-18T05:56:41;66.28;;;22.65;;
24216;SDS011;12356;49.386;8.688;2022-12-18T05:59:11;68.95;;;23.20;;
24216;SDS011;12356;49.386;8.688;2022-12-18T06:01:42;62.63;;;23.00;;
24216;SDS011;12356;49.386;8.688;2022-12-18T06:04:13;72.25;;;23.48;;
24216;SDS011;12356;49.386;8.688;2022-12-18T06:06:43;67.82;;;23.13;;
24216;SDS011;12356;49.386;8.688;2022-12-18T06:09:14;66.63;;;23.48;;
24216;SDS011;12356;49.386;8.688;2022-12-18T06:11:45;72.13;;;23.80;;
24216;SDS011;12356;49.386;8.688;2022-12-18T06:14:15;72.50;;;24.67;;
24216;SDS011;12356;49.386;8.688;2022-12-18T06:16:47;70.13;;;23.87;;
24216;SDS011;12356;49.386;8.688;2022-12-18T06:19:20;67.25;;;23.85;;
24216;SDS011;12356;49.386;8.688;2022-12-18T06:21:50;68.75;;;24.20;;
24216;SDS011;12356;49.386;8.688;2022-12-18T06:24:21;72.32;;;23.23;;
24216;SDS011;12356;49.386;8.688;2022-12-18T06:26:52;72.47;;;24.52;;
24216;SDS011;12356;49.386;8.688;2022-12-18T06:29:22;71.50;;;24.40;;
24216;SDS011;12356;49.386;8.688;2022-12-18T06:31:53;67.75;;;23.33;;
24216;SDS011;12356;49.386;8.688;2022-12-18T06:34:24;66.70;;;23.80;;
24216;SDS011;12356;49.386;8.688;2022-12-18T06:36:54;66.70;;;23.73;;
24216;SDS011;12356;49.386;8.688;2022-12-18T06:39:27;67.22;;;23.25;;
24216;SDS011;12356;49.386;8.688;2022-12-18T06:41:58;68.70;;;24.15;;
24216;SDS011;12356;49.386;8.688;2022-12-18T06:44:28;65.85;;;23.42;;
24216;SDS011;12356;49.386;8.688;2022-12-18T06:46:59;65.72;;;22.40;;
24216;SDS011;12356;49.386;8.688;2022-12-18T06:49:30;78.35;;;24.98;;
24216;SDS011;12356;49.386;8.688;2022-12-18T06:52:00;83.22;;;27.85;;
24216;SDS011;12356;49.386;8.688;2022-12-18T06:54:31;73.85;;;25.50;;
24216;SDS011;12356;49.386;8.688;2022-12-18T06:57:01;68.80;;;24.13;;
24216;SDS011;12356;49.386;8.688;2022-12-18T06:59:32;70.95;;;23.35;;
24216;SDS011;12356;49.386;8.688;2022-12-18T07:02:03;69.80;;;23.20;;
24216;SDS011;12356;49.386;8.688;2022-12-18T07:04:34;69.30;;;23.42;;
24216;SDS011;12356;49.386;8.688;2022-12-18T07:07:05;70.50;;;24.33;;
24216;SDS011;12356;49.386;8.688;2022-12-18T07:09:36;69.97;;;23.67;;
24216;SDS011;12356;49.386;8.688;2022-12-18T07:12:06;65.38;;;21.63;;
24216;SDS011;12356;49.386;8.688;2022-12-18T07:14:38;65.47;;;23.13;;
24216;SDS011;12356;49.386;8.688;2022-12-18T07:17:08;70.50;;;24.38;;
24216;SDS011;12356;49.386;8.688;2022-12-18T07:19:39;69.28;;;24.42;;
24216;SDS011;12356;49.386;8.688;2022-12-18T07:22:09;64.65;;;23.48;;
24216;SDS011;12356;49.386;8.688;2022-12-18T07:24:40;68.50;;;23.75;;
24216;SDS011;12356;49.386;8.688;2022-12-18T07:27:11;71.60;;;23.25;;
24216;SDS011;12356;49.386;8.688;2022-12-18T07:29:41;67.00;;;23.08;;
24216;SDS011;12356;49.386;8.688;2022-12-18T07:32:12;66.28;;;23.63;;
24216;SDS011;12356;49.386;8.688;2022-12-18T07:34:43;65.32;;;22.38;;
24216;SDS011;12356;49.386;8.688;2022-12-18T07:37:13;65.00;;;23.35;;
24216;SDS011;12356;49.386;8.688;2022-12-18T07:39:44;61.03;;;23.30;;
24216;SDS011;12356;49.386;8.688;2022-12-18T07:42:15;58.00;;;21.33;;
24216;SDS011;12356;49.386;8.688;2022-12-18T07:45:01;63.80;;;22.38;;
24216;SDS011;12356;49.386;8.688;2022-12-18T07:47:34;65.00;;;23.27;;
24216;SDS011;12356;49.386;8.688;2022-12-18T07:50:05;65.00;;;23.58;;
24216;SDS011;12356;49.386;8.688;2022-12-18T07:52:36;63.53;;;23.60;;
24216;SDS011;12356;49.386;8.688;2022-12-18T07:55:07;66.60;;;23.10;;
24216;SDS011;12356;49.386;8.688;2022-12-18T07:57:38;68.35;;;24.20;;
24216;SDS011;12356;49.386;8.688;2022-12-18T08:00:09;67.00;;;22.73;;
24216;SDS011;12356;49.386;8.688;2022-12-18T08:02:40;62.80;;;23.10;;
24216;SDS011;12356;49.386;8.688;2022-12-18T08:05:11;62.60;;;22.67;;
24216;SDS011;12356;49.386;8.688;2022-12-18T08:07:41;65.20;;;23.85;;
24216;SDS011;12356;49.386;8.688;2022-12-18T08:10:12;63.10;;;23.08;;
24216;SDS011;12356;49.386;8.688;2022-12-18T08:12:43;68.30;;;23.77;;
24216;SDS011;12356;49.386;8.688;2022-12-18T08:15:14;61.13;;;22.88;;
24216;SDS011;12356;49.386;8.688;2022-12-18T08:17:44;63.35;;;23.33;;
24216;SDS011;12356;49.386;8.688;2022-12-18T08:20:15;64.18;;;23.42;;
24216;SDS011;12356;49.386;8.688;2022-12-18T08:22:47;58.42;;;22.55;;
24216;SDS011;12356;49.386;8.688;2022-12-18T08:25:17;63.53;;;22.63;;
24216;SDS011;12356;49.386;8.688;2022-12-18T08:27:48;68.07;;;23.30;;
24216;SDS011;12356;49.386;8.688;2022-12-18T08:30:18;64.88;;;24.83;;
24216;SDS011;12356;49.386;8.688;2022-12-18T08:32:51;57.92;;;23.05;;
24216;SDS011;12356;49.386;8.688;2022-12-18T08:35:23;57.80;;;21.90;;
24216;SDS011;12356;49.386;8.688;2022-12-18T08:37:53;55.70;;;22.13;;
24216;SDS011;12356;49.386;8.688;2022-12-18T08:40:24;59.33;;;22.73;;
24216;SDS011;12356;49.386;8.688;2022-12-18T08:42:55;65.13;;;25.35;;
24216;SDS011;12356;49.386;8.688;2022-12-18T08:45:44;56.28;;;21.48;;
24216;SDS011;12356;49.386;8.688;2022-12-18T08:48:14;60.10;;;22.80;;
24216;SDS011;12356;49.386;8.688;2022-12-18T08:50:55;56.78;;;23.35;;
24216;SDS011;12356;49.386;8.688;2022-12-18T08:53:29;58.92;;;22.00;;
24216;SDS011;12356;49.386;8.688;2022-12-18T08:55:59;56.05;;;22.50;;
24216;SDS011;12356;49.386;8.688;2022-12-18T08:58:30;56.60;;;22.92;;
24216;SDS011;12356;49.386;8.688;2022-12-18T09:01:01;58.78;;;21.88;;
24216;SDS011;12356;49.386;8.688;2022-12-18T09:03:36;59.30;;;22.65;;
24216;SDS011;12356;49.386;8.688;2022-12-18T09:06:08;60.93;;;23.67;;
24216;SDS011;12356;49.386;8.688;2022-12-18T09:08:39;59.38;;;22.40;;
24216;SDS011;12356;49.386;8.688;2022-12-18T09:11:13;56.10;;;23.20;;
24216;SDS011;12356;49.386;8.688;2022-12-18T09:13:48;55.05;;;22.42;;
24216;SDS011;12356;49.386;8.688;2022-12-18T09:16:20;56.38;;;24.02;;
24216;SDS011;12356;49.386;8.688;2022-12-18T09:18:51;56.80;;;22.40;;
24216;SDS011;12356;49.386;8.688;2022-12-18T09:21:30;51.83;;;22.17;;
24216;SDS011;12356;49.386;8.688;2022-12-18T09:24:02;51.92;;;20.80;;
24216;SDS011;12356;49.386;8.688;2022-12-18T09:26:33;53.92;;;22.25;;
24216;SDS011;12356;49.386;8.688;2022-12-18T09:29:04;56.85;;;22.33;;
24216;SDS011;12356;49.386;8.688;2022-12-18T09:31:34;57.28;;;23.27;;
24216;SDS011;12356;49.386;8.688;2022-12-18T09:34:06;52.70;;;21.27;;
24216;SDS011;12356;49.386;8.688;2022-12-18T09:36:37;50.90;;;20.27;;
24216;SDS011;12356;49.386;8.688;2022-12-18T09:39:08;52.45;;;20.92;;
24216;SDS011;12356;49.386;8.688;2022-12-18T09:41:40;48.58;;;19.58;;
24216;SDS011;12356;49.386;8.688;2022-12-18T09:44:51;57.15;;;20.70;;
24216;SDS011;12356;49.386;8.688;2022-12-18T09:49:58;48.78;;;19.45;;
24216;SDS011;12356;49.386;8.688;2022-12-18T09:52:35;52.28;;;20.25;;
24216;SDS011;12356;49.386;8.688;2022-12-18T10:00:40;53.40;;;19.70;;
24216;SDS011;12356;49.386;8.688;2022-12-18T10:03:12;49.60;;;19.95;;
24216;SDS011;12356;49.386;8.688;2022-12-18T10:25:18;48.17;;;19.23;;
24216;SDS011;12356;49.386;8.688;2022-12-18T10:28:07;49.85;;;19.95;;
24216;SDS011;12356;49.386;8.688;2022-12-18T10:30:42;48.05;;;19.73;;
24216;SDS011;12356;49.386;8.688;2022-12-18T10:33:14;51.55;;;19.85;;
24216;SDS011;12356;49.386;8.688;2022-12-18T10:35:50;52.08;;;19.83;;
24216;SDS011;12356;49.386;8.688;2022-12-18T10:38:23;48.20;;;19.95;;
24216;SDS011;12356;49.386;8.688;2022-12-18T10:40:59;52.90;;;20.17;;
24216;SDS011;12356;49.386;8.688;2022-12-18T10:43:44;48.38;;;19.60;;
24216;SDS011;12356;49.386;8.688;2022-12-18T10:46:19;44.92;;;19.08;;
24216;SDS011;12356;49.386;8.688;2022-12-18T10:48:54;50.08;;;19.67;;
24216;SDS011;12356;49.386;8.688;2022-12-18T10:51:27;50.97;;;20.60;;
24216;SDS011;12356;49.386;8.688;2022-12-18T10:54:01;47.30;;;19.45;;
24216;SDS011;12356;49.386;8.688;2022-12-18T10:56:35;52.67;;;19.50;;
24216;SDS011;12356;49.386;8.688;2022-12-18T10:59:08;52.08;;;20.38;;
24216;SDS011;12356;49.386;8.688;2022-12-18T11:04:22;49.92;;;19.67;;
24216;SDS011;12356;49.386;8.688;2022-12-18T11:07:01;46.70;;;19.15;;
24216;SDS011;12356;49.386;8.688;2022-12-18T11:09:34;49.47;;;19.25;;
24216;SDS011;12356;49.386;8.688;2022-12-18T11:14:49;48.95;;;19.75;;
24216;SDS011;12356;49.386;8.688;2022-12-18T11:17:28;47.95;;;19.92;;
24216;SDS011;12356;49.386;8.688;2022-12-18T11:20:04;53.72;;;19.63;;
24216;SDS011;12356;49.386;8.688;2022-12-18T11:22:37;50.90;;;20.42;;
24216;SDS011;12356;49.386;8.688;2022-12-18T11:27:40;49.58;;;18.55;;
24216;SDS011;12356;49.386;8.688;2022-12-18T11:30:40;47.33;;;19.30;;
24216;SDS011;12356;49.386;8.688;2022-12-18T11:33:13;48.22;;;20.02;;
24216;SDS011;12356;49.386;8.688;2022-12-18T11:35:55;49.60;;;19.13;;
24216;SDS011;12356;49.386;8.688;2022-12-18T11:38:31;49.47;;;19.20;;
24216;SDS011;12356;49.386;8.688;2022-12-18T11:41:07;49.92;;;19.42;;
24216;SDS011;12356;49.386;8.688;2022-12-18T11:43:52;48.03;;;19.73;;
24216;SDS011;12356;49.386;8.688;2022-12-18T11:46:36;48.85;;;19.73;;
24216;SDS011;12356;49.386;8.688;2022-12-18T11:49:28;46.55;;;19.70;;
24216;SDS011;12356;49.386;8.688;2022-12-18T11:52:09;49.40;;;19.55;;
24216;SDS011;12356;49.386;8.688;2022-12-18T11:54:45;47.90;;;20.02;;
24216;SDS011;12356;49.386;8.688;2022-12-18T11:57:20;46.95;;;19.23;;
24216;SDS011;12356;49.386;8.688;2022-12-18T12:00:01;48.58;;;19.30;;
24216;SDS011;12356;49.386;8.688;2022-12-18T12:05:51;53.55;;;20.80;;
24216;SDS011;12356;49.386;8.688;2022-12-18T12:22:31;50.03;;;20.10;;
24216;SDS011;12356;49.386;8.688;2022-12-18T12:34:11;53.85;;;21.45;;
24216;SDS011;12356;49.386;8.688;2022-12-18T12:39:36;50.15;;;20.55;;
24216;SDS011;12356;49.386;8.688;2022-12-18T12:42:17;51.20;;;21.15;;
24216;SDS011;12356;49.386;8.688;2022-12-18T12:45:15;50.03;;;19.45;;
24216;SDS011;12356;49.386;8.688;2022-12-18T12:47:50;47.00;;;20.20;;
24216;SDS011;12356;49.386;8.688;2022-12-18T12:50:22;53.47;;;21.02;;
24216;SDS011;12356;49.386;8.688;2022-12-18T12:52:54;51.70;;;20.52;;
24216;SDS011;12356;49.386;8.688;2022-12-18T12:55:27;57.05;;;21.20;;
24216;SDS011;12356;49.386;8.688;2022-12-18T12:58:01;50.88;;;20.05;;
24216;SDS011;12356;49.386;8.688;2022-12-18T13:00:38;51.53;;;20.73;;
24216;SDS011;12356;49.386;8.688;2022-12-18T13:04:12;54.05;;;21.33;;
24216;SDS011;12356;49.386;8.688;2022-12-18T13:09:13;50.22;;;20.80;;
24216;SDS011;12356;49.386;8.688;2022-12-18T13:11:45;52.13;;;20.17;;
24216;SDS011;12356;49.386;8.688;2022-12-18T13:15:01;48.55;;;19.75;;
24216;SDS011;12356;49.386;8.688;2022-12-18T13:33:53;45.80;;;18.67;;
24216;SDS011;12356;49.386;8.688;2022-12-18T13:42:31;45.55;;;18.17;;
24216;SDS011;12356;49.386;8.688;2022-12-18T13:45:59;48.75;;;18.60;;
24216;SDS011;12356;49.386;8.688;2022-12-18T13:48:14;48.50;;;19.10;;
24216;SDS011;12356;49.386;8.688;2022-12-18T13:50:48;48.13;;;19.13;;
24216;SDS011;12356;49.386;8.688;2022-12-18T13:53:29;48.65;;;19.13;;
24216;SDS011;12356;49.386;8.688;2022-12-18T13:56:04;46.05;;;18.85;;
24216;SDS011;12356;49.386;8.688;2022-12-18T13:58:35;51.93;;;19.67;;
24216;SDS011;12356;49.386;8.688;2022-12-18T14:01:15;49.28;;;19.88;;
24216;SDS011;12356;49.386;8.688;2022-12-18T14:04:08;50.28;;;19.98;;
24216;SDS011;12356;49.386;8.688;2022-12-18T14:06:40;47.10;;;19.15;;
24216;SDS011;12356;49.386;8.688;2022-12-18T14:09:14;50.17;;;19.63;;
24216;SDS011;12356;49.386;8.688;2022-12-18T14:11:50;53.08;;;20.27;;
24216;SDS011;12356;49.386;8.688;2022-12-18T14:14:22;48.05;;;18.88;;
24216;SDS011;12356;49.386;8.688;2022-12-18T14:16:53;47.75;;;19.33;;
24216;SDS011;12356;49.386;8.688;2022-12-18T14:19:23;48.75;;;19.42;;
24216;SDS011;12356;49.386;8.688;2022-12-18T14:21:55;46.05;;;18.48;;
24216;SDS011;12356;49.386;8.688;2022-12-18T14:24:26;46.05;;;19.38;;
24216;SDS011;12356;49.386;8.688;2022-12-18T14:26:57;49.50;;;19.20;;
24216;SDS011;12356;49.386;8.688;2022-12-18T14:29:53;48.53;;;19.90;;
24216;SDS011;12356;49.386;8.688;2022-12-18T14:32:23;51.30;;;20.08;;
24216;SDS011;12356;49.386;8.688;2022-12-18T14:34:54;49.60;;;19.45;;
24216;SDS011;12356;49.386;8.688;2022-12-18T14:37:26;50.42;;;19.77;;
24216;SDS011;12356;49.386;8.688;2022-12-18T14:39:58;48.92;;;19.60;;
24216;SDS011;12356;49.386;8.688;2022-12-18T14:42:30;50.75;;;20.40;;
24216;SDS011;12356;49.386;8.688;2022-12-18T14:51:06;49.35;;;18.95;;
24216;SDS011;12356;49.386;8.688;2022-12-18T14:53:52;48.60;;;19.08;;
24216;SDS011;12356;49.386;8.688;2022-12-18T15:01:29;49.50;;;18.63;;
24216;SDS011;12356;49.386;8.688;2022-12-18T15:06:33;44.97;;;17.92;;
24216;SDS011;12356;49.386;8.688;2022-12-18T15:09:20;47.38;;;18.38;;
24216;SDS011;12356;49.386;8.688;2022-12-18T15:11:56;44.15;;;18.35;;
24216;SDS011;12356;49.386;8.688;2022-12-18T15:17:02;44.78;;;18.02;;
24216;SDS011;12356;49.386;8.688;2022-12-18T15:19:39;43.30;;;17.70;;
24216;SDS011;12356;49.386;8.688;2022-12-18T15:22:22;45.60;;;19.13;;
24216;SDS011;12356;49.386;8.688;2022-12-18T15:24:56;45.72;;;18.52;;
24216;SDS011;12356;49.386;8.688;2022-12-18T15:27:33;46.42;;;18.58;;
24216;SDS011;12356;49.386;8.688;2022-12-18T15:32:39;46.67;;;18.67;;
24216;SDS011;12356;49.386;8.688;2022-12-18T15:37:41;44.42;;;18.30;;
24216;SDS011;12356;49.386;8.688;2022-12-18T15:40:13;50.90;;;19.58;;
24216;SDS011;12356;49.386;8.688;2022-12-18T15:42:45;48.35;;;18.48;;
24216;SDS011;12356;49.386;8.688;2022-12-18T15:45:35;47.00;;;17.92;;
24216;SDS011;12356;49.386;8.688;2022-12-18T15:48:22;45.70;;;17.55;;
24216;SDS011;12356;49.386;8.688;2022-12-18T15:50:53;45.28;;;18.33;;
24216;SDS011;12356;49.386;8.688;2022-12-18T15:53:32;51.17;;;18.98;;
24216;SDS011;12356;49.386;8.688;2022-12-18T15:56:04;50.15;;;19.10;;
24216;SDS011;12356;49.386;8.688;2022-12-18T15:58:57;47.15;;;18.27;;
24216;SDS011;12356;49.386;8.688;2022-12-18T16:01:29;43.60;;;17.90;;
24216;SDS011;12356;49.386;8.688;2022-12-18T16:04:01;43.00;;;17.60;;
24216;SDS011;12356;49.386;8.688;2022-12-18T16:06:32;49.08;;;19.10;;
24216;SDS011;12356;49.386;8.688;2022-12-18T16:09:02;46.55;;;18.40;;
24216;SDS011;12356;49.386;8.688;2022-12-18T16:11:33;45.75;;;18.27;;
24216;SDS011;12356;49.386;8.688;2022-12-18T16:17:12;48.47;;;18.73;;
24216;SDS011;12356;49.386;8.688;2022-12-18T16:19:44;31.67;;;13.40;;
24216;SDS011;12356;49.386;8.688;2022-12-18T16:22:21;44.78;;;17.70;;
24216;SDS011;12356;49.386;8.688;2022-12-18T16:24:54;42.03;;;17.58;;
24216;SDS011;12356;49.386;8.688;2022-12-18T16:27:25;44.25;;;18.40;;
24216;SDS011;12356;49.386;8.688;2022-12-18T16:29:56;45.00;;;18.65;;
24216;SDS011;12356;49.386;8.688;2022-12-18T16:32:27;45.00;;;18.90;;
24216;SDS011;12356;49.386;8.688;2022-12-18T16:34:59;46.63;;;18.23;;
24216;SDS011;12356;49.386;8.688;2022-12-18T16:40:00;44.72;;;17.48;;
24216;SDS011;12356;49.386;8.688;2022-12-18T16:42:31;47.28;;;19.08;;
24216;SDS011;12356;49.386;8.688;2022-12-18T16:45:02;48.78;;;18.88;;
24216;SDS011;12356;49.386;8.688;2022-12-18T16:47:33;49.28;;;19.23;;
24216;SDS011;12356;49.386;8.688;2022-12-18T16:50:04;44.58;;;18.52;;
24216;SDS011;12356;49.386;8.688;2022-12-18T16:52:36;46.58;;;18.85;;
24216;SDS011;12356;49.386;8.688;2022-12-18T16:55:07;48.83;;;20.08;;
24216;SDS011;12356;49.386;8.688;2022-12-18T16:57:39;35.78;;;13.98;;
24216;SDS011;12356;49.386;8.688;2022-12-18T17:00:09;46.30;;;19.27;;
24216;SDS011;12356;49.386;8.688;2022-12-18T17:02:41;48.30;;;18.50;;
24216;SDS011;12356;49.386;8.688;2022-12-18T17:05:11;47.13;;;18.75;;
24216;SDS011;12356;49.386;8.688;2022-12-18T17:07:42;44.83;;;19.27;;
24216;SDS011;12356;49.386;8.688;2022-12-18T17:10:12;46.95;;;19.55;;
24216;SDS011;12356;49.386;8.688;2022-12-18T17:12:43;43.60;;;18.08;;
24216;SDS011;12356;49.386;8.688;2022-12-18T17:15:14;44.75;;;18.13;;
24216;SDS011;12356;49.386;8.688;2022-12-18T17:17:44;46.08;;;18.55;;
24216;SDS011;12356;49.386;8.688;2022-12-18T17:20:15;42.67;;;18.95;;
24216;SDS011;12356;49.386;8.688;2022-12-18T17:22:45;44.72;;;18.42;;
24216;SDS011;12356;49.386;8.688;2022-12-18T17:25:16;42.60;;;18.33;;